sensor_id;sensor_type;location;lat;lon;timestamp;pressure;altitude;pressure_sealevel;temperature
62930;BMP280;49036;42.782;23.108;2023-10-09T00:02:08;94506.72;;;15.20
62930;BMP280;49036;42.782;23.108;2023-10-09T00:04:34;94510.16;;;15.07
62930;BMP280;49036;42.782;23.108;2023-10-09T00:07:03;94508.09;;;15.08
62930;BMP280;49036;42.782;23.108;2023-10-09T00:09:28;94513.91;;;15.00
62930;BMP280;49036;42.782;23.108;2023-10-09T00:11:58;94507.59;;;14.88
62930;BMP280;49036;42.782;23.108;2023-10-09T00:14:26;94504.44;;;14.82
62930;BMP280;49036;42.782;23.108;2023-10-09T00:16:56;94509.50;;;14.74
62930;BMP280;49036;42.782;23.108;2023-10-09T00:19:42;94494.06;;;14.61
62930;BMP280;49036;42.782;23.108;2023-10-09T00:22:09;94495.03;;;14.66
62930;BMP280;49036;42.782;23.108;2023-10-09T00:24:49;94494.28;;;14.53
62930;BMP280;49036;42.782;23.108;2023-10-09T00:27:25;94486.78;;;14.56
62930;BMP280;49036;42.782;23.108;2023-10-09T00:29:56;94488.84;;;14.44
62930;BMP280;49036;42.782;23.108;2023-10-09T00:32:22;94485.28;;;14.32
62930;BMP280;49036;42.782;23.108;2023-10-09T00:34:49;94487.69;;;14.25
62930;BMP280;49036;42.782;23.108;2023-10-09T00:37:16;94499.09;;;14.29
62930;BMP280;49036;42.782;23.108;2023-10-09T00:39:43;94507.09;;;14.23
62930;BMP280;49036;42.782;23.108;2023-10-09T00:42:10;94512.16;;;14.15
62930;BMP280;49036;42.782;23.108;2023-10-09T00:44:41;94520.38;;;14.02
62930;BMP280;49036;42.782;23.108;2023-10-09T00:47:09;94526.84;;;13.83
62930;BMP280;49036;42.782;23.108;2023-10-09T00:49:51;94510.56;;;13.79
62930;BMP280;49036;42.782;23.108;2023-10-09T00:52:25;94510.19;;;13.73
62930;BMP280;49036;42.782;23.108;2023-10-09T00:54:59;94502.88;;;13.68
62930;BMP280;49036;42.782;23.108;2023-10-09T00:57:28;94500.81;;;13.69
62930;BMP280;49036;42.782;23.108;2023-10-09T00:59:58;94497.53;;;13.51
62930;BMP280;49036;42.782;23.108;2023-10-09T01:02:28;94498.47;;;13.44
62930;BMP280;49036;42.782;23.108;2023-10-09T01:05:08;94513.97;;;13.35
62930;BMP280;49036;42.782;23.108;2023-10-09T01:07:45;94517.78;;;13.30
62930;BMP280;49036;42.782;23.108;2023-10-09T01:10:11;94543.31;;;13.26
62930;BMP280;49036;42.782;23.108;2023-10-09T01:12:56;94553.00;;;13.25
62930;BMP280;49036;42.782;23.108;2023-10-09T01:15:22;94559.50;;;13.18
62930;BMP280;49036;42.782;23.108;2023-10-09T01:18:09;94575.69;;;13.10
62930;BMP280;49036;42.782;23.108;2023-10-09T01:20:34;94571.44;;;13.09
62930;BMP280;49036;42.782;23.108;2023-10-09T01:25:55;94584.09;;;12.91
62930;BMP280;49036;42.782;23.108;2023-10-09T01:28:20;94577.06;;;12.90
62930;BMP280;49036;42.782;23.108;2023-10-09T01:30:46;94574.59;;;12.84
62930;BMP280;49036;42.782;23.108;2023-10-09T01:33:13;94574.59;;;12.75
62930;BMP280;49036;42.782;23.108;2023-10-09T01:35:53;94578.28;;;12.68
62930;BMP280;49036;42.782;23.108;2023-10-09T01:38:25;94580.66;;;12.52
62930;BMP280;49036;42.782;23.108;2023-10-09T01:41:10;94579.50;;;12.45
62930;BMP280;49036;42.782;23.108;2023-10-09T01:43:41;94568.81;;;12.32
62930;BMP280;49036;42.782;23.108;2023-10-09T01:46:13;94560.47;;;12.22
62930;BMP280;49036;42.782;23.108;2023-10-09T01:48:42;94562.94;;;12.18
62930;BMP280;49036;42.782;23.108;2023-10-09T01:51:14;94584.63;;;12.10
62930;BMP280;49036;42.782;23.108;2023-10-09T01:53:46;94601.75;;;11.97
62930;BMP280;49036;42.782;23.108;2023-10-09T01:56:22;94615.50;;;11.95
62930;BMP280;49036;42.782;23.108;2023-10-09T01:58:47;94619.47;;;12.02
62930;BMP280;49036;42.782;23.108;2023-10-09T02:01:16;94612.13;;;11.96
62930;BMP280;49036;42.782;23.108;2023-10-09T02:03:41;94594.72;;;11.96
62930;BMP280;49036;42.782;23.108;2023-10-09T02:06:09;94598.78;;;11.85
62930;BMP280;49036;42.782;23.108;2023-10-09T02:08:57;94592.88;;;11.72
62930;BMP280;49036;42.782;23.108;2023-10-09T02:11:25;94603.84;;;11.60
62930;BMP280;49036;42.782;23.108;2023-10-09T02:14:04;94609.25;;;11.58
62930;BMP280;49036;42.782;23.108;2023-10-09T02:16:45;94606.47;;;11.48
62930;BMP280;49036;42.782;23.108;2023-10-09T02:19:28;94608.44;;;11.38
62930;BMP280;49036;42.782;23.108;2023-10-09T02:22:02;94615.59;;;11.31
62930;BMP280;49036;42.782;23.108;2023-10-09T02:24:48;94602.88;;;11.28
62930;BMP280;49036;42.782;23.108;2023-10-09T02:27:13;94609.28;;;11.31
62930;BMP280;49036;42.782;23.108;2023-10-09T02:29:46;94620.38;;;11.21
62930;BMP280;49036;42.782;23.108;2023-10-09T02:32:13;94631.75;;;11.16
62930;BMP280;49036;42.782;23.108;2023-10-09T02:34:41;94633.97;;;11.17
62930;BMP280;49036;42.782;23.108;2023-10-09T02:37:12;94634.38;;;11.14
62930;BMP280;49036;42.782;23.108;2023-10-09T02:39:39;94644.38;;;10.99
62930;BMP280;49036;42.782;23.108;2023-10-09T02:42:13;94645.97;;;11.02
62930;BMP280;49036;42.782;23.108;2023-10-09T02:44:39;94635.59;;;10.93
62930;BMP280;49036;42.782;23.108;2023-10-09T02:47:06;94639.03;;;10.84
62930;BMP280;49036;42.782;23.108;2023-10-09T02:49:38;94636.91;;;10.75
62930;BMP280;49036;42.782;23.108;2023-10-09T02:52:22;94643.38;;;10.60
62930;BMP280;49036;42.782;23.108;2023-10-09T02:54:52;94643.88;;;10.49
62930;BMP280;49036;42.782;23.108;2023-10-09T02:57:26;94652.44;;;10.44
62930;BMP280;49036;42.782;23.108;2023-10-09T03:00:02;94659.16;;;10.41
62930;BMP280;49036;42.782;23.108;2023-10-09T03:02:28;94656.25;;;10.31
62930;BMP280;49036;42.782;23.108;2023-10-09T03:04:57;94662.28;;;10.20
62930;BMP280;49036;42.782;23.108;2023-10-09T03:07:24;94662.63;;;10.24
62930;BMP280;49036;42.782;23.108;2023-10-09T03:09:50;94661.56;;;10.36
62930;BMP280;49036;42.782;23.108;2023-10-09T03:12:15;94657.81;;;10.42
62930;BMP280;49036;42.782;23.108;2023-10-09T03:14:44;94669.50;;;10.40
62930;BMP280;49036;42.782;23.108;2023-10-09T03:17:10;94669.16;;;10.36
62930;BMP280;49036;42.782;23.108;2023-10-09T03:19:38;94680.75;;;10.25
62930;BMP280;49036;42.782;23.108;2023-10-09T03:22:04;94673.72;;;10.24
62930;BMP280;49036;42.782;23.108;2023-10-09T03:24:30;94677.63;;;10.21
62930;BMP280;49036;42.782;23.108;2023-10-09T03:27:00;94667.69;;;10.18
62930;BMP280;49036;42.782;23.108;2023-10-09T03:29:26;94661.97;;;10.16
62930;BMP280;49036;42.782;23.108;2023-10-09T03:31:52;94653.47;;;10.14
62930;BMP280;49036;42.782;23.108;2023-10-09T03:34:20;94655.94;;;10.10
62930;BMP280;49036;42.782;23.108;2023-10-09T03:36:46;94656.31;;;10.06
62930;BMP280;49036;42.782;23.108;2023-10-09T03:39:16;94661.91;;;9.98
62930;BMP280;49036;42.782;23.108;2023-10-09T03:42:00;94660.13;;;9.93
62930;BMP280;49036;42.782;23.108;2023-10-09T03:44:33;94659.84;;;9.82
62930;BMP280;49036;42.782;23.108;2023-10-09T03:46:59;94676.16;;;9.77
62930;BMP280;49036;42.782;23.108;2023-10-09T03:49:25;94677.78;;;9.56
62930;BMP280;49036;42.782;23.108;2023-10-09T03:51:51;94683.97;;;9.39
62930;BMP280;49036;42.782;23.108;2023-10-09T03:54:18;94687.91;;;9.28
62930;BMP280;49036;42.782;23.108;2023-10-09T03:56:48;94683.16;;;9.21
62930;BMP280;49036;42.782;23.108;2023-10-09T03:59:18;94676.34;;;9.14
62930;BMP280;49036;42.782;23.108;2023-10-09T04:01:46;94667.66;;;9.18
62930;BMP280;49036;42.782;23.108;2023-10-09T04:04:13;94653.25;;;9.20
62930;BMP280;49036;42.782;23.108;2023-10-09T04:06:39;94646.19;;;9.26
62930;BMP280;49036;42.782;23.108;2023-10-09T04:09:10;94642.13;;;9.27
62930;BMP280;49036;42.782;23.108;2023-10-09T04:11:51;94640.47;;;9.24
62930;BMP280;49036;42.782;23.108;2023-10-09T04:14:38;94658.41;;;9.15
62930;BMP280;49036;42.782;23.108;2023-10-09T04:17:16;94681.00;;;9.12
62930;BMP280;49036;42.782;23.108;2023-10-09T04:19:47;94685.47;;;9.00
62930;BMP280;49036;42.782;23.108;2023-10-09T04:22:39;94685.13;;;8.88
62930;BMP280;49036;42.782;23.108;2023-10-09T04:25:16;94687.00;;;8.86
62930;BMP280;49036;42.782;23.108;2023-10-09T04:27:53;94685.16;;;8.80
62930;BMP280;49036;42.782;23.108;2023-10-09T04:30:26;94675.72;;;8.83
62930;BMP280;49036;42.782;23.108;2023-10-09T04:32:51;94678.72;;;8.86
62930;BMP280;49036;42.782;23.108;2023-10-09T04:35:20;94680.00;;;8.85
62930;BMP280;49036;42.782;23.108;2023-10-09T04:37:50;94680.75;;;8.85
62930;BMP280;49036;42.782;23.108;2023-10-09T04:40:29;94695.09;;;8.83
62930;BMP280;49036;42.782;23.108;2023-10-09T04:43:16;94697.34;;;8.77
62930;BMP280;49036;42.782;23.108;2023-10-09T04:45:48;94702.34;;;8.71
62930;BMP280;49036;42.782;23.108;2023-10-09T04:48:33;94706.63;;;8.57
62930;BMP280;49036;42.782;23.108;2023-10-09T04:51:03;94701.50;;;8.46
62930;BMP280;49036;42.782;23.108;2023-10-09T04:53:50;94701.47;;;8.38
62930;BMP280;49036;42.782;23.108;2023-10-09T04:56:16;94704.59;;;8.42
62930;BMP280;49036;42.782;23.108;2023-10-09T04:58:42;94712.34;;;8.44
62930;BMP280;49036;42.782;23.108;2023-10-09T05:01:09;94715.09;;;8.44
62930;BMP280;49036;42.782;23.108;2023-10-09T05:03:39;94726.19;;;8.44
62930;BMP280;49036;42.782;23.108;2023-10-09T05:06:05;94731.53;;;8.49
62930;BMP280;49036;42.782;23.108;2023-10-09T05:08:47;94737.56;;;8.71
62930;BMP280;49036;42.782;23.108;2023-10-09T05:11:14;94727.22;;;8.87
62930;BMP280;49036;42.782;23.108;2023-10-09T05:14:09;94728.28;;;8.99
62930;BMP280;49036;42.782;23.108;2023-10-09T05:16:38;94733.75;;;9.14
62930;BMP280;49036;42.782;23.108;2023-10-09T05:19:20;94732.06;;;9.26
62930;BMP280;49036;42.782;23.108;2023-10-09T05:22:10;94739.03;;;9.35
62930;BMP280;49036;42.782;23.108;2023-10-09T05:24:57;94744.16;;;9.46
62930;BMP280;49036;42.782;23.108;2023-10-09T05:27:26;94746.88;;;9.54
62930;BMP280;49036;42.782;23.108;2023-10-09T05:30:10;94751.19;;;9.72
62930;BMP280;49036;42.782;23.108;2023-10-09T05:32:54;94755.34;;;9.88
62930;BMP280;49036;42.782;23.108;2023-10-09T05:35:45;94761.88;;;10.08
62930;BMP280;49036;42.782;23.108;2023-10-09T05:38:24;94759.28;;;10.10
62930;BMP280;49036;42.782;23.108;2023-10-09T05:40:50;94766.28;;;10.11
62930;BMP280;49036;42.782;23.108;2023-10-09T05:43:20;94772.00;;;10.13
62930;BMP280;49036;42.782;23.108;2023-10-09T05:46:04;94771.56;;;10.24
62930;BMP280;49036;42.782;23.108;2023-10-09T05:48:35;94777.94;;;10.34
62930;BMP280;49036;42.782;23.108;2023-10-09T05:51:03;94772.13;;;10.48
62930;BMP280;49036;42.782;23.108;2023-10-09T05:53:35;94766.63;;;10.57
62930;BMP280;49036;42.782;23.108;2023-10-09T05:56:20;94777.50;;;10.63
62930;BMP280;49036;42.782;23.108;2023-10-09T05:58:57;94783.31;;;10.75
62930;BMP280;49036;42.782;23.108;2023-10-09T06:01:42;94785.84;;;10.80
62930;BMP280;49036;42.782;23.108;2023-10-09T06:04:17;94793.00;;;10.91
62930;BMP280;49036;42.782;23.108;2023-10-09T06:06:44;94788.22;;;11.01
62930;BMP280;49036;42.782;23.108;2023-10-09T06:09:12;94787.34;;;11.16
62930;BMP280;49036;42.782;23.108;2023-10-09T06:11:37;94796.41;;;11.16
62930;BMP280;49036;42.782;23.108;2023-10-09T06:14:03;94787.66;;;11.20
62930;BMP280;49036;42.782;23.108;2023-10-09T06:19:00;94796.38;;;11.33
62930;BMP280;49036;42.782;23.108;2023-10-09T06:21:41;94804.06;;;11.43
62930;BMP280;49036;42.782;23.108;2023-10-09T06:24:19;94801.81;;;11.58
62930;BMP280;49036;42.782;23.108;2023-10-09T06:26:46;94800.44;;;11.67
62930;BMP280;49036;42.782;23.108;2023-10-09T06:29:24;94806.78;;;11.77
62930;BMP280;49036;42.782;23.108;2023-10-09T06:32:18;94802.03;;;11.97
62930;BMP280;49036;42.782;23.108;2023-10-09T06:34:49;94799.03;;;12.12
62930;BMP280;49036;42.782;23.108;2023-10-09T06:37:21;94805.63;;;12.17
62930;BMP280;49036;42.782;23.108;2023-10-09T06:39:54;94809.31;;;12.19
62930;BMP280;49036;42.782;23.108;2023-10-09T06:42:27;94804.16;;;12.16
62930;BMP280;49036;42.782;23.108;2023-10-09T06:45:06;94798.97;;;12.39
62930;BMP280;49036;42.782;23.108;2023-10-09T06:47:33;94814.13;;;12.55
62930;BMP280;49036;42.782;23.108;2023-10-09T06:50:08;94806.06;;;12.59
62930;BMP280;49036;42.782;23.108;2023-10-09T06:52:50;94798.16;;;12.75
62930;BMP280;49036;42.782;23.108;2023-10-09T06:55:46;94797.00;;;12.78
62930;BMP280;49036;42.782;23.108;2023-10-09T06:58:19;94804.06;;;12.89
62930;BMP280;49036;42.782;23.108;2023-10-09T07:00:54;94803.16;;;12.86
62930;BMP280;49036;42.782;23.108;2023-10-09T07:03:24;94804.78;;;12.80
62930;BMP280;49036;42.782;23.108;2023-10-09T07:06:08;94811.84;;;13.00
62930;BMP280;49036;42.782;23.108;2023-10-09T07:08:56;94804.81;;;13.09
62930;BMP280;49036;42.782;23.108;2023-10-09T07:11:32;94807.44;;;13.07
62930;BMP280;49036;42.782;23.108;2023-10-09T07:14:20;94816.38;;;13.05
62930;BMP280;49036;42.782;23.108;2023-10-09T07:17:05;94816.22;;;12.93
62930;BMP280;49036;42.782;23.108;2023-10-09T07:19:50;94820.94;;;13.01
62930;BMP280;49036;42.782;23.108;2023-10-09T07:22:17;94810.38;;;13.09
62930;BMP280;49036;42.782;23.108;2023-10-09T07:27:37;94812.41;;;13.47
62930;BMP280;49036;42.782;23.108;2023-10-09T07:30:11;94822.41;;;13.40
62930;BMP280;49036;42.782;23.108;2023-10-09T07:33:05;94824.88;;;13.46
62930;BMP280;49036;42.782;23.108;2023-10-09T07:35:39;94827.50;;;13.44
62930;BMP280;49036;42.782;23.108;2023-10-09T07:38:09;94830.44;;;13.46
62930;BMP280;49036;42.782;23.108;2023-10-09T07:40:35;94827.34;;;13.51
62930;BMP280;49036;42.782;23.108;2023-10-09T07:43:20;94816.69;;;13.48
62930;BMP280;49036;42.782;23.108;2023-10-09T07:45:52;94817.84;;;13.54
62930;BMP280;49036;42.782;23.108;2023-10-09T07:48:26;94810.16;;;13.74
62930;BMP280;49036;42.782;23.108;2023-10-09T07:50:52;94824.97;;;13.77
62930;BMP280;49036;42.782;23.108;2023-10-09T07:53:23;94821.50;;;13.67
62930;BMP280;49036;42.782;23.108;2023-10-09T07:55:55;94814.75;;;13.60
62930;BMP280;49036;42.782;23.108;2023-10-09T07:58:29;94805.75;;;13.71
62930;BMP280;49036;42.782;23.108;2023-10-09T08:00:56;94801.47;;;13.80
62930;BMP280;49036;42.782;23.108;2023-10-09T08:03:32;94798.81;;;13.82
62930;BMP280;49036;42.782;23.108;2023-10-09T08:06:00;94803.31;;;13.96
62930;BMP280;49036;42.782;23.108;2023-10-09T08:08:44;94806.75;;;14.16
62930;BMP280;49036;42.782;23.108;2023-10-09T08:11:31;94815.75;;;14.46
62930;BMP280;49036;42.782;23.108;2023-10-09T08:14:05;94819.25;;;14.15
62930;BMP280;49036;42.782;23.108;2023-10-09T08:16:50;94817.94;;;14.16
62930;BMP280;49036;42.782;23.108;2023-10-09T08:19:31;94813.91;;;14.29
62930;BMP280;49036;42.782;23.108;2023-10-09T08:21:59;94803.75;;;14.55
62930;BMP280;49036;42.782;23.108;2023-10-09T08:24:44;94814.56;;;14.70
62930;BMP280;49036;42.782;23.108;2023-10-09T08:27:18;94810.75;;;14.66
62930;BMP280;49036;42.782;23.108;2023-10-09T08:30:12;94809.38;;;14.76
62930;BMP280;49036;42.782;23.108;2023-10-09T08:32:38;94795.22;;;14.84
62930;BMP280;49036;42.782;23.108;2023-10-09T08:35:06;94805.97;;;14.99
62930;BMP280;49036;42.782;23.108;2023-10-09T08:37:56;94800.53;;;15.01
62930;BMP280;49036;42.782;23.108;2023-10-09T08:40:33;94785.66;;;15.20
62930;BMP280;49036;42.782;23.108;2023-10-09T08:43:15;94782.47;;;15.25
62930;BMP280;49036;42.782;23.108;2023-10-09T08:46:01;94783.31;;;15.16
62930;BMP280;49036;42.782;23.108;2023-10-09T08:48:27;94776.78;;;15.23
62930;BMP280;49036;42.782;23.108;2023-10-09T08:50:55;94779.59;;;15.35
62930;BMP280;49036;42.782;23.108;2023-10-09T08:53:22;94785.47;;;15.51
62930;BMP280;49036;42.782;23.108;2023-10-09T08:55:56;94780.16;;;15.67
62930;BMP280;49036;42.782;23.108;2023-10-09T08:58:24;94772.38;;;15.77
62930;BMP280;49036;42.782;23.108;2023-10-09T09:01:02;94770.94;;;15.87
62930;BMP280;49036;42.782;23.108;2023-10-09T09:03:38;94779.44;;;15.89
62930;BMP280;49036;42.782;23.108;2023-10-09T09:06:04;94779.69;;;15.93
62930;BMP280;49036;42.782;23.108;2023-10-09T09:08:31;94773.97;;;16.03
62930;BMP280;49036;42.782;23.108;2023-10-09T09:11:16;94777.53;;;16.04
62930;BMP280;49036;42.782;23.108;2023-10-09T09:13:47;94771.91;;;16.15
62930;BMP280;49036;42.782;23.108;2023-10-09T09:16:20;94782.13;;;16.22
62930;BMP280;49036;42.782;23.108;2023-10-09T09:18:54;94779.47;;;16.36
62930;BMP280;49036;42.782;23.108;2023-10-09T09:21:29;94773.13;;;16.36
62930;BMP280;49036;42.782;23.108;2023-10-09T09:23:56;94775.69;;;16.31
62930;BMP280;49036;42.782;23.108;2023-10-09T09:26:34;94768.50;;;16.77
62930;BMP280;49036;42.782;23.108;2023-10-09T09:29:10;94764.94;;;16.88
62930;BMP280;49036;42.782;23.108;2023-10-09T09:31:36;94770.09;;;16.80
62930;BMP280;49036;42.782;23.108;2023-10-09T09:34:07;94765.22;;;16.81
62930;BMP280;49036;42.782;23.108;2023-10-09T09:36:55;94769.22;;;16.78
62930;BMP280;49036;42.782;23.108;2023-10-09T09:39:23;94762.91;;;17.02
62930;BMP280;49036;42.782;23.108;2023-10-09T09:41:58;94762.31;;;17.29
62930;BMP280;49036;42.782;23.108;2023-10-09T09:44:33;94767.81;;;17.27
62930;BMP280;49036;42.782;23.108;2023-10-09T09:47:09;94751.13;;;17.43
62930;BMP280;49036;42.782;23.108;2023-10-09T09:49:41;94744.53;;;17.78
62930;BMP280;49036;42.782;23.108;2023-10-09T09:52:07;94751.09;;;17.96
62930;BMP280;49036;42.782;23.108;2023-10-09T09:54:37;94746.94;;;18.11
62930;BMP280;49036;42.782;23.108;2023-10-09T09:57:03;94736.75;;;18.03
62930;BMP280;49036;42.782;23.108;2023-10-09T09:59:45;94741.31;;;18.11
62930;BMP280;49036;42.782;23.108;2023-10-09T10:02:37;94736.97;;;18.21
62930;BMP280;49036;42.782;23.108;2023-10-09T10:06:19;94738.63;;;18.13
62930;BMP280;49036;42.782;23.108;2023-10-09T10:08:48;94717.56;;;18.41
62930;BMP280;49036;42.782;23.108;2023-10-09T10:14:07;94715.50;;;19.16
62930;BMP280;49036;42.782;23.108;2023-10-09T10:17:02;94704.97;;;19.17
62930;BMP280;49036;42.782;23.108;2023-10-09T10:22:41;94699.00;;;19.56
62930;BMP280;49036;42.782;23.108;2023-10-09T10:28:19;94672.75;;;20.00
62930;BMP280;49036;42.782;23.108;2023-10-09T10:30:55;94666.53;;;20.73
62930;BMP280;49036;42.782;23.108;2023-10-09T10:33:21;94669.72;;;21.01
62930;BMP280;49036;42.782;23.108;2023-10-09T10:35:48;94662.44;;;20.23
62930;BMP280;49036;42.782;23.108;2023-10-09T10:40:50;94652.66;;;20.08
62930;BMP280;49036;42.782;23.108;2023-10-09T10:43:30;94647.66;;;20.06
62930;BMP280;49036;42.782;23.108;2023-10-09T10:46:15;94650.56;;;20.79
62930;BMP280;49036;42.782;23.108;2023-10-09T10:48:53;94645.41;;;20.74
62930;BMP280;49036;42.782;23.108;2023-10-09T10:51:34;94652.94;;;21.05
62930;BMP280;49036;42.782;23.108;2023-10-09T10:54:07;94648.59;;;21.02
62930;BMP280;49036;42.782;23.108;2023-10-09T10:56:51;94646.13;;;20.92
62930;BMP280;49036;42.782;23.108;2023-10-09T10:59:20;94634.69;;;20.70
62930;BMP280;49036;42.782;23.108;2023-10-09T11:01:49;94636.53;;;20.64
62930;BMP280;49036;42.782;23.108;2023-10-09T11:04:23;94634.84;;;21.12
62930;BMP280;49036;42.782;23.108;2023-10-09T11:06:56;94622.63;;;21.64
62930;BMP280;49036;42.782;23.108;2023-10-09T11:09:48;94623.56;;;21.31
62930;BMP280;49036;42.782;23.108;2023-10-09T11:12:30;94610.78;;;21.70
62930;BMP280;49036;42.782;23.108;2023-10-09T11:15:11;94608.06;;;21.52
62930;BMP280;49036;42.782;23.108;2023-10-09T11:20:25;94596.47;;;21.64
62930;BMP280;49036;42.782;23.108;2023-10-09T11:22:52;94610.50;;;21.82
62930;BMP280;49036;42.782;23.108;2023-10-09T11:25:47;94613.72;;;21.94
62930;BMP280;49036;42.782;23.108;2023-10-09T11:28:19;94602.41;;;22.16
62930;BMP280;49036;42.782;23.108;2023-10-09T11:31:10;94597.84;;;22.74
62930;BMP280;49036;42.782;23.108;2023-10-09T11:33:52;94599.59;;;21.94
62930;BMP280;49036;42.782;23.108;2023-10-09T11:36:22;94585.31;;;22.12
62930;BMP280;49036;42.782;23.108;2023-10-09T11:39:04;94586.28;;;22.66
62930;BMP280;49036;42.782;23.108;2023-10-09T11:41:42;94579.34;;;23.20
62930;BMP280;49036;42.782;23.108;2023-10-09T11:44:10;94570.22;;;23.50
62930;BMP280;49036;42.782;23.108;2023-10-09T11:47:02;94571.81;;;23.57
62930;BMP280;49036;42.782;23.108;2023-10-09T11:49:50;94563.94;;;23.53
62930;BMP280;49036;42.782;23.108;2023-10-09T11:52:23;94554.44;;;23.43
62930;BMP280;49036;42.782;23.108;2023-10-09T11:55:02;94559.00;;;23.84
62930;BMP280;49036;42.782;23.108;2023-10-09T11:57:28;94551.97;;;24.47
62930;BMP280;49036;42.782;23.108;2023-10-09T11:59:59;94555.63;;;24.21
62930;BMP280;49036;42.782;23.108;2023-10-09T12:02:26;94543.44;;;24.47
62930;BMP280;49036;42.782;23.108;2023-10-09T12:06:07;94537.41;;;24.62
62930;BMP280;49036;42.782;23.108;2023-10-09T12:10:30;94521.28;;;24.73
62930;BMP280;49036;42.782;23.108;2023-10-09T12:12:56;94526.41;;;24.45
62930;BMP280;49036;42.782;23.108;2023-10-09T12:15:25;94520.97;;;24.57
62930;BMP280;49036;42.782;23.108;2023-10-09T12:19:10;94517.88;;;24.81
62930;BMP280;49036;42.782;23.108;2023-10-09T12:21:35;94505.84;;;24.48
62930;BMP280;49036;42.782;23.108;2023-10-09T12:24:02;94496.09;;;24.91
62930;BMP280;49036;42.782;23.108;2023-10-09T12:26:37;94495.38;;;24.91
62930;BMP280;49036;42.782;23.108;2023-10-09T12:31:05;94491.75;;;25.26
62930;BMP280;49036;42.782;23.108;2023-10-09T12:34:58;94494.38;;;25.54
62930;BMP280;49036;42.782;23.108;2023-10-09T12:37:23;94498.44;;;25.43
62930;BMP280;49036;42.782;23.108;2023-10-09T12:39:49;94487.09;;;25.91
62930;BMP280;49036;42.782;23.108;2023-10-09T12:42:21;94491.91;;;25.36
62930;BMP280;49036;42.782;23.108;2023-10-09T12:44:47;94485.50;;;24.96
62930;BMP280;49036;42.782;23.108;2023-10-09T12:47:14;94489.16;;;25.00
62930;BMP280;49036;42.782;23.108;2023-10-09T12:49:39;94485.66;;;25.04
62930;BMP280;49036;42.782;23.108;2023-10-09T12:52:07;94478.09;;;25.18
62930;BMP280;49036;42.782;23.108;2023-10-09T12:55:30;94474.72;;;25.26
62930;BMP280;49036;42.782;23.108;2023-10-09T12:58:01;94464.97;;;25.39
62930;BMP280;49036;42.782;23.108;2023-10-09T13:00:34;94464.34;;;25.45
62930;BMP280;49036;42.782;23.108;2023-10-09T13:03:04;94452.94;;;25.43
62930;BMP280;49036;42.782;23.108;2023-10-09T13:05:39;94452.94;;;25.89
62930;BMP280;49036;42.782;23.108;2023-10-09T13:10:07;94446.59;;;26.49
62930;BMP280;49036;42.782;23.108;2023-10-09T13:12:38;94454.56;;;26.04
62930;BMP280;49036;42.782;23.108;2023-10-09T13:15:10;94448.25;;;26.10
62930;BMP280;49036;42.782;23.108;2023-10-09T13:17:37;94443.38;;;26.18
62930;BMP280;49036;42.782;23.108;2023-10-09T13:20:04;94430.44;;;26.09
62930;BMP280;49036;42.782;23.108;2023-10-09T13:22:39;94423.88;;;25.96
62930;BMP280;49036;42.782;23.108;2023-10-09T13:25:07;94428.97;;;26.04
62930;BMP280;49036;42.782;23.108;2023-10-09T13:27:40;94437.03;;;26.86
62930;BMP280;49036;42.782;23.108;2023-10-09T13:30:06;94426.97;;;26.15
62930;BMP280;49036;42.782;23.108;2023-10-09T13:32:33;94422.66;;;25.60
62930;BMP280;49036;42.782;23.108;2023-10-09T13:35:04;94426.94;;;25.61
62930;BMP280;49036;42.782;23.108;2023-10-09T13:37:31;94418.81;;;25.41
62930;BMP280;49036;42.782;23.108;2023-10-09T13:40:03;94415.44;;;25.52
62930;BMP280;49036;42.782;23.108;2023-10-09T13:42:35;94422.63;;;26.70
62930;BMP280;49036;42.782;23.108;2023-10-09T13:45:02;94420.38;;;27.39
62930;BMP280;49036;42.782;23.108;2023-10-09T13:47:33;94414.44;;;27.10
62930;BMP280;49036;42.782;23.108;2023-10-09T13:49:59;94404.31;;;27.96
62930;BMP280;49036;42.782;23.108;2023-10-09T13:52:25;94407.59;;;27.50
62930;BMP280;49036;42.782;23.108;2023-10-09T13:54:55;94412.34;;;27.15
62930;BMP280;49036;42.782;23.108;2023-10-09T13:57:22;94412.72;;;27.68
62930;BMP280;49036;42.782;23.108;2023-10-09T13:59:56;94413.31;;;27.48
62930;BMP280;49036;42.782;23.108;2023-10-09T14:02:26;94404.16;;;26.75
62930;BMP280;49036;42.782;23.108;2023-10-09T14:04:53;94403.50;;;26.81
62930;BMP280;49036;42.782;23.108;2023-10-09T14:07:41;94403.72;;;27.07
62930;BMP280;49036;42.782;23.108;2023-10-09T14:10:07;94403.03;;;26.36
62930;BMP280;49036;42.782;23.108;2023-10-09T14:12:43;94398.97;;;26.55
62930;BMP280;49036;42.782;23.108;2023-10-09T14:15:10;94405.41;;;26.58
62930;BMP280;49036;42.782;23.108;2023-10-09T14:17:43;94396.78;;;24.97
62930;BMP280;49036;42.782;23.108;2023-10-09T14:20:09;94411.63;;;23.24
62930;BMP280;49036;42.782;23.108;2023-10-09T14:22:53;94400.81;;;23.16
62930;BMP280;49036;42.782;23.108;2023-10-09T14:25:19;94402.34;;;22.66
62930;BMP280;49036;42.782;23.108;2023-10-09T14:27:46;94408.63;;;21.89
62930;BMP280;49036;42.782;23.108;2023-10-09T14:30:13;94403.63;;;22.11
62930;BMP280;49036;42.782;23.108;2023-10-09T14:32:48;94397.00;;;22.78
62930;BMP280;49036;42.782;23.108;2023-10-09T14:35:21;94393.44;;;23.05
62930;BMP280;49036;42.782;23.108;2023-10-09T14:37:52;94391.13;;;23.26
62930;BMP280;49036;42.782;23.108;2023-10-09T14:40:19;94371.38;;;23.93
62930;BMP280;49036;42.782;23.108;2023-10-09T14:42:58;94380.31;;;23.18
62930;BMP280;49036;42.782;23.108;2023-10-09T14:45:24;94364.91;;;22.69
62930;BMP280;49036;42.782;23.108;2023-10-09T14:47:52;94371.69;;;23.12
62930;BMP280;49036;42.782;23.108;2023-10-09T14:52:14;94371.56;;;22.52
62930;BMP280;49036;42.782;23.108;2023-10-09T14:56:29;94370.88;;;22.79
62930;BMP280;49036;42.782;23.108;2023-10-09T14:59:00;94370.72;;;22.48
62930;BMP280;49036;42.782;23.108;2023-10-09T15:01:26;94373.19;;;21.62
62930;BMP280;49036;42.782;23.108;2023-10-09T15:03:57;94363.72;;;21.53
62930;BMP280;49036;42.782;23.108;2023-10-09T15:06:24;94362.25;;;21.28
62930;BMP280;49036;42.782;23.108;2023-10-09T15:08:50;94362.22;;;21.05
62930;BMP280;49036;42.782;23.108;2023-10-09T15:11:16;94357.28;;;20.64